Sumise Maru No.22 — JD3589 — position and weather

sailwx.info

Track history (hours):
 
Tides and Currents Weather Stations Pressure Air Temp Water Temp Dewpoint Dewpoint Depression Visibility Wind Speed Wind Dir Waves Ship Positions

Sumise Maru No.22

Last reported at 2018-Feb-23 12:23 UTC. Time now 2018-Feb-23 12:38 UTC.
Position N 34°48' E 139°14'.

Length 116 m; draft 4.6 m.

Type: Cargo ship. MMSI: 431005246.

Date/timePositionNaut miles runAvg speedWind from/ knotsBaromVisibWave heightAir tempDewpointWater temp
2018-Feb-23 12:23N 34°48' E 139°14'513.0
2018-Feb-23 11:59N 34°52' E 139°18'613.0
2018-Feb-23 11:30N 34°55' E 139°25'613.1
2018-Feb-23 11:01N 34°59' E 139°31'713.4
2018-Feb-23 10:30N 35°03' E 139°38'713.2
2018-Feb-23 10:00N 35°08' E 139°44'713.3
2018-Feb-23 09:31N 35°14' E 139°46'612.2
2018-Feb-23 09:01N 35°19' E 139°43'611.6
2018-Feb-23 08:31N 35°25' E 139°44'713.3
2018-Feb-23 08:01N 35°29' E 139°50'611.9
2018-Feb-23 07:30N 35°35' E 139°48'4 0.7
2018-Feb-23 02:20N 35°38' E 139°45'0 0.0
2018-Feb-22 23:54N 35°38' E 139°45'0 0.0
2018-Feb-22 23:27N 35°38' E 139°45'0 0.1
2018-Feb-22 23:00N 35°38' E 139°46'2 4.3
2018-Feb-22 22:30N 35°36' E 139°47'5 9.7
2018-Feb-22 22:00N 35°33' E 139°51'2 1.6
2018-Feb-22 20:34N 35°34' E 139°54'0 0.3
2018-Feb-22 20:25N 35°34' E 139°54'0 0.1
2018-Feb-22 19:34N 35°34' E 139°54'0 0.1
2018-Feb-22 19:28N 35°34' E 139°54'0 0.0
2018-Feb-22 18:49N 35°34' E 139°54'0 0.0
2018-Feb-22 18:19N 35°34' E 139°54'0 0.1
2018-Feb-22 17:55N 35°34' E 139°54'2 5.0
2018-Feb-22 17:30N 35°32' E 139°53'611.9
2018-Feb-22 17:00N 35°27' E 139°49'612.0
2018-Feb-22 16:31N 35°22' E 139°45'510.9
2018-Feb-22 16:00N 35°17' E 139°46'611.7
2018-Feb-22 15:30N 35°11' E 139°46'612.8
2018-Feb-22 15:00N 35°05' E 139°43'612.4
2018-Feb-22 14:30N 35°00' E 139°38'712.7
2018-Feb-22 13:59N 34°56' E 139°32'612.7
2018-Feb-22 13:29N 34°53' E 139°25'1112.4
2018-Feb-22 12:36N 34°46' E 139°15'212.4
2018-Feb-22 12:26N 34°44' E 139°13'511.7
2018-Feb-22 12:00N 34°40' E 139°09'811.2
2018-Feb-22 11:18N 34°35' E 139°02'410.8
2018-Feb-22 10:54N 34°33' E 138°58'512.4
2018-Feb-22 10:30N 34°33' E 138°52'611.0
2018-Feb-22 09:57N 34°36' E 138°45'511.8
2018-Feb-22 09:29N 34°41' E 138°42'612.3
2018-Feb-22 09:00N 34°46' E 138°40'612.8
2018-Feb-22 08:30N 34°52' E 138°37'612.9
2018-Feb-22 08:00N 34°58' E 138°34'4 8.3
2018-Feb-22 07:30N 35°01' E 138°30'1 2.1
2018-Feb-22 06:59N 34°60' E 138°30'0 0.0
2018-Feb-22 06:29N 34°60' E 138°30'0 0.0
2018-Feb-22 05:59N 34°60' E 138°30'0 0.0
2018-Feb-22 05:29N 34°60' E 138°30'0 0.0
2018-Feb-22 04:56N 34°60' E 138°30'0 0.0
2018-Feb-22 04:29N 34°60' E 138°30'0 0.0
2018-Feb-22 03:59N 34°60' E 138°30'0 0.0
2018-Feb-22 03:29N 34°60' E 138°30'0 0.0
2018-Feb-22 02:59N 34°60' E 138°30'0 0.0
2018-Feb-22 02:29N 34°60' E 138°30'1 1.2
2018-Feb-22 02:01N 35°00' E 138°30'3 5.4
2018-Feb-22 01:30N 35°00' E 138°33'612.3
2018-Feb-22 01:00N 34°55' E 138°30'612.6
2018-Feb-22 00:31N 34°49' E 138°28'712.6
2018-Feb-21 23:58N 34°43' E 138°24'712.2
2018-Feb-21 23:25N 34°37' E 138°21'511.9
2018-Feb-21 23:00N 34°33' E 138°17'16510.9
2018-Feb-21 07:48N 33°49' E 135°04'413.3
2018-Feb-21 07:30N 33°52' E 135°02'713.2
2018-Feb-21 07:00N 33°58' E 135°00'713.5
2018-Feb-21 06:30N 34°05' E 135°01'713.4
2018-Feb-21 06:00N 34°12' E 135°01'510.4
2018-Feb-21 05:30N 34°14' E 135°06'1 2.4
2018-Feb-21 04:58N 34°14' E 135°08'0 0.1
2018-Feb-21 04:28N 34°14' E 135°08'0 0.0
2018-Feb-21 03:58N 34°14' E 135°08'0 0.0
2018-Feb-21 03:28N 34°14' E 135°08'0 0.1
2018-Feb-21 02:58N 34°14' E 135°08'0 0.1
2018-Feb-21 02:28N 34°14' E 135°08'0 0.1
2018-Feb-21 01:58N 34°14' E 135°08'0 0.6
2018-Feb-21 01:30N 34°14' E 135°08'4 8.7
2018-Feb-21 01:00N 34°15' E 135°02'5 9.7
2018-Feb-21 00:30N 34°18' E 134°58'611.8
2018-Feb-21 00:00N 34°24' E 135°00'612.2
2018-Feb-20 23:30N 34°30' E 135°02'611.8
2018-Feb-20 23:01N 34°36' E 135°03'612.8
2018-Feb-20 22:30N 34°36' E 134°55'713.3
2018-Feb-20 22:00N 34°39' E 134°47'612.9
2018-Feb-20 21:30N 34°41' E 134°40'612.6
2018-Feb-20 21:00N 34°42' E 134°33'712.9
2018-Feb-20 20:26N 34°42' E 134°24'3 0.4
2018-Feb-20 12:20N 34°45' E 134°22'1 1.9
2018-Feb-20 11:58N 34°44' E 134°22'3 6.9
2018-Feb-20 11:30N 34°41' E 134°24'612.6
2018-Feb-20 11:00N 34°42' E 134°32'612.8
2018-Feb-20 10:30N 34°42' E 134°39'612.8
2018-Feb-20 10:00N 34°39' E 134°47'612.1
2018-Feb-20 09:30N 34°37' E 134°54'611.6
2018-Feb-20 09:00N 34°38' E 135°00'5 9.7
2018-Feb-20 08:30N 34°35' E 135°05'612.3
2018-Feb-20 08:00N 34°29' E 135°03'612.7
2018-Feb-20 07:30N 34°23' E 135°01'611.9
2018-Feb-20 07:00N 34°17' E 134°59'612.1
2018-Feb-20 06:30N 34°11' E 134°59'612.5
2018-Feb-20 06:01N 34°05' E 134°60'612.5
2018-Feb-20 05:31N 33°59' E 134°59'612.0
2018-Feb-20 05:00N 33°53' E 135°01'612.4
2018-Feb-20 04:30N 33°48' E 135°05'101 8.8
2018-Feb-19 17:03N 34°40' E 136°50'113.1
2018-Feb-19 17:00N 34°40' E 136°50'713.9
2018-Feb-19 16:30N 34°47' E 136°46'713.7
2018-Feb-19 16:00N 34°54' E 136°46'713.4
2018-Feb-19 15:30N 34°60' E 136°49'5 9.1
2018-Feb-19 15:01N 35°04' E 136°52'0 0.1
2018-Feb-19 14:29N 35°04' E 136°52'0 0.0
2018-Feb-19 13:59N 35°04' E 136°52'0 0.0
2018-Feb-19 13:29N 35°04' E 136°52'0 0.0
2018-Feb-19 12:59N 35°04' E 136°52'0 0.0
2018-Feb-19 12:29N 35°04' E 136°52'0 0.0
2018-Feb-19 11:59N 35°04' E 136°52'0 0.0
2018-Feb-19 11:29N 35°04' E 136°52'0 0.0
2018-Feb-19 10:59N 35°04' E 136°52'0 0.0
2018-Feb-19 10:29N 35°04' E 136°52'0 0.0
2018-Feb-19 09:59N 35°04' E 136°52'0 0.0
2018-Feb-19 09:29N 35°04' E 136°52'0 0.0
2018-Feb-19 08:59N 35°04' E 136°52'0 0.0
2018-Feb-19 08:23N 35°04' E 136°52'0 0.0
2018-Feb-19 07:59N 35°04' E 136°52'0 0.0
2018-Feb-19 07:29N 35°04' E 136°52'0 0.0
2018-Feb-19 06:59N 35°04' E 136°52'0 0.0
2018-Feb-19 06:29N 35°04' E 136°52'0 0.0
2018-Feb-19 05:59N 35°04' E 136°52'0 0.0
2018-Feb-19 05:26N 35°04' E 136°52'0 0.0
2018-Feb-19 04:56N 35°04' E 136°52'0 0.0
2018-Feb-19 04:26N 35°04' E 136°52'0 0.0
2018-Feb-19 03:59N 35°04' E 136°52'0 0.0
2018-Feb-19 03:29N 35°04' E 136°52'0 0.0
2018-Feb-19 02:59N 35°04' E 136°52'0 0.0
2018-Feb-19 02:29N 35°04' E 136°52'0 0.0
2018-Feb-19 02:01N 35°04' E 136°52'0 0.0
2018-Feb-19 01:30N 35°04' E 136°52'2 4.5
2018-Feb-19 01:00N 35°01' E 136°51'611.7
2018-Feb-19 00:31N 34°57' E 136°47'612.1
2018-Feb-19 00:01N 34°50' E 136°47'612.1
2018-Feb-18 23:30N 34°45' E 136°50'912.4
2018-Feb-18 22:45N 34°37' E 136°56'  
2018-Feb-16 16:07N 34°31' E 138°04'211.8
2018-Feb-16 15:59N 34°31' E 138°06'611.4
2018-Feb-16 15:28N 34°31' E 138°13'511.2
2018-Feb-16 15:00N 34°33' E 138°19'711.8
2018-Feb-16 14:25N 34°39' E 138°23'512.2
2018-Feb-16 14:00N 34°44' E 138°25'612.2
2018-Feb-16 13:29N 34°50' E 138°28'612.3
2018-Feb-16 12:59N 34°55' E 138°31'612.4
2018-Feb-16 12:30N 35°01' E 138°33'3 5.9
2018-Feb-16 12:00N 34°60' E 138°30'0 0.1
2018-Feb-16 11:25N 34°60' E 138°30'0 0.0
2018-Feb-16 10:58N 34°60' E 138°30'0 0.0
2018-Feb-16 10:28N 34°60' E 138°30'0 0.0
2018-Feb-16 09:58N 34°60' E 138°30'0 0.0
2018-Feb-16 09:28N 34°60' E 138°30'0 0.0
2018-Feb-16 08:58N 34°60' E 138°30'0 0.0
2018-Feb-16 08:28N 34°60' E 138°30'0 0.0
2018-Feb-16 07:58N 34°60' E 138°30'0 0.0
2018-Feb-16 07:28N 34°60' E 138°30'0 0.0
2018-Feb-16 06:58N 34°60' E 138°30'0 0.0
2018-Feb-16 06:28N 34°60' E 138°30'0 0.0
2018-Feb-16 05:58N 34°60' E 138°30'0 0.0
2018-Feb-16 05:28N 34°60' E 138°30'0 0.0
2018-Feb-16 04:55N 34°60' E 138°30'0 0.0
2018-Feb-16 04:28N 34°60' E 138°30'0 0.0
2018-Feb-16 03:58N 34°60' E 138°30'0 0.0
2018-Feb-16 03:25N 34°60' E 138°30'0 0.0
2018-Feb-16 02:52N 34°60' E 138°30'0 0.0
2018-Feb-16 02:28N 34°60' E 138°30'0 0.0
2018-Feb-16 01:58N 34°60' E 138°30'0 0.0
2018-Feb-16 01:28N 34°60' E 138°30'0 0.0
2018-Feb-16 00:58N 34°60' E 138°30'0 0.0
2018-Feb-16 00:28N 34°60' E 138°30'0 0.0
2018-Feb-15 23:58N 34°60' E 138°30'0 0.0
2018-Feb-15 23:28N 34°60' E 138°30'0 0.0
2018-Feb-15 22:58N 34°60' E 138°30'0 0.0
2018-Feb-15 22:28N 34°60' E 138°30'0 0.0
2018-Feb-15 21:58N 34°60' E 138°30'0 0.0
2018-Feb-15 21:28N 34°60' E 138°30'0 0.0
2018-Feb-15 20:58N 34°60' E 138°30'0 0.0
2018-Feb-15 20:28N 34°60' E 138°30'0 0.0
2018-Feb-15 19:58N 34°60' E 138°30'0 0.0
2018-Feb-15 19:28N 34°60' E 138°30'0 0.0
2018-Feb-15 18:58N 34°60' E 138°30'0 0.0
2018-Feb-15 18:30N 34°60' E 138°30'1 2.2
2018-Feb-15 18:00N 35°01' E 138°30'3 6.3
2018-Feb-15 17:31N 34°60' E 138°34'713.3
2018-Feb-15 17:00N 34°54' E 138°37'713.1
2018-Feb-15 16:30N 34°47' E 138°39'712.6
2018-Feb-15 15:58N 34°41' E 138°42'611.9
2018-Feb-15 15:30N 34°36' E 138°44'510.1
2018-Feb-15 15:00N 34°35' E 138°50'510.9
2018-Feb-15 14:30N 34°33' E 138°57'712.0
2018-Feb-15 13:54N 34°38' E 139°02'511.8
2018-Feb-15 13:31N 34°42' E 139°06'712.8
2018-Feb-15 13:00N 34°47' E 139°11'712.0
2018-Feb-15 12:27N 34°52' E 139°16'611.4
2018-Feb-15 11:56N 34°55' E 139°23'512.0
2018-Feb-15 11:28N 34°59' E 139°28'612.7
2018-Feb-15 11:00N 35°02' E 139°34'713.2
2018-Feb-15 10:30N 35°06' E 139°40'613.3
2018-Feb-15 10:01N 35°11' E 139°45'611.8
2018-Feb-15 09:30N 35°17' E 139°45'612.5
2018-Feb-15 09:00N 35°23' E 139°42'3 5.6
2018-Feb-15 08:30N 35°26' E 139°41'0 0.0
2018-Feb-15 08:00N 35°26' E 139°41'0 0.0
2018-Feb-15 07:30N 35°26' E 139°41'0 0.0
2018-Feb-15 06:58N 35°26' E 139°41'0 0.0
2018-Feb-15 06:24N 35°26' E 139°41'0 0.0
2018-Feb-15 06:01N 35°26' E 139°41'0 0.0
2018-Feb-15 05:30N 35°26' E 139°41'0 0.0
2018-Feb-15 05:01N 35°26' E 139°41'0 0.4
2018-Feb-15 04:30N 35°25' E 139°41'1 1.1
2018-Feb-15 04:00N 35°25' E 139°42'0 0.0
2018-Feb-15 03:30N 35°25' E 139°42'0 0.0
2018-Feb-15 03:00N 35°25' E 139°42'0 0.1
2018-Feb-15 02:30N 35°25' E 139°42'0 0.0
2018-Feb-15 02:00N 35°25' E 139°42'0 0.1
2018-Feb-15 01:30N 35°25' E 139°42'0 0.0
2018-Feb-15 01:00N 35°25' E 139°42'0 0.0
2018-Feb-15 00:30N 35°25' E 139°42'0 0.1
2018-Feb-15 00:00N 35°25' E 139°42'0 0.0
2018-Feb-14 23:30N 35°25' E 139°42'0 0.0
2018-Feb-14 23:00N 35°25' E 139°42'1 1.1
2018-Feb-14 22:30N 35°25' E 139°42'510.6
2018-Feb-14 22:01N 35°19' E 139°43'611.8
2018-Feb-14 21:31N 35°14' E 139°47'612.4
2018-Feb-14 21:00N 35°08' E 139°46'612.0
2018-Feb-14 20:30N 35°03' E 139°41'612.8
2018-Feb-14 20:00N 34°59' E 139°36'814.9
2018-Feb-14 19:30N 34°55' E 139°28'815.3
2018-Feb-14 19:00N 34°50' E 139°21'814.1
2018-Feb-14 18:28N 34°45' E 139°14'614.3
2018-Feb-14 18:00N 34°40' E 139°08'713.7
2018-Feb-14 17:28N 34°35' E 139°02'613.3
2018-Feb-14 17:00N 34°31' E 138°56'814.1
2018-Feb-14 16:24N 34°30' E 138°46'613.7
2018-Feb-14 15:57N 34°29' E 138°39'613.8
2018-Feb-14 15:30N 34°28' E 138°31'713.6
2018-Feb-14 15:00N 34°26' E 138°23'813.8
2018-Feb-14 14:23N 34°25' E 138°13'  
Track history (hours):
 
Tides and Currents Weather Stations Pressure Air Temp Water Temp Dewpoint Dewpoint Depression Visibility Wind Speed Wind Dir Waves Ship Positions

Sumise Maru No.22

Last reported at 2018-Feb-23 12:23 UTC. Time now 2018-Feb-23 12:38 UTC.
Position N 34°48' E 139°14'.

Length 116 m; draft 4.6 m.

Type: Cargo ship. MMSI: 431005246.

Date/timePositionNaut miles runAvg speedWind from/ knotsBaromVisibWave heightAir tempDewpointWater temp
2018-Feb-23 12:23N 34°48' E 139°14'513.0
2018-Feb-23 11:59N 34°52' E 139°18'613.0
2018-Feb-23 11:30N 34°55' E 139°25'613.1
2018-Feb-23 11:01N 34°59' E 139°31'713.4
2018-Feb-23 10:30N 35°03' E 139°38'713.2
2018-Feb-23 10:00N 35°08' E 139°44'713.3
2018-Feb-23 09:31N 35°14' E 139°46'612.2
2018-Feb-23 09:01N 35°19' E 139°43'611.6
2018-Feb-23 08:31N 35°25' E 139°44'713.3
2018-Feb-23 08:01N 35°29' E 139°50'611.9
2018-Feb-23 07:30N 35°35' E 139°48'4 0.7
2018-Feb-23 02:20N 35°38' E 139°45'0 0.0
2018-Feb-22 23:54N 35°38' E 139°45'0 0.0
2018-Feb-22 23:27N 35°38' E 139°45'0 0.1
2018-Feb-22 23:00N 35°38' E 139°46'2 4.3
2018-Feb-22 22:30N 35°36' E 139°47'5 9.7
2018-Feb-22 22:00N 35°33' E 139°51'2 1.6
2018-Feb-22 20:34N 35°34' E 139°54'0 0.3
2018-Feb-22 20:25N 35°34' E 139°54'0 0.1
2018-Feb-22 19:34N 35°34' E 139°54'0 0.1
2018-Feb-22 19:28N 35°34' E 139°54'0 0.0
2018-Feb-22 18:49N 35°34' E 139°54'0 0.0
2018-Feb-22 18:19N 35°34' E 139°54'0 0.1
2018-Feb-22 17:55N 35°34' E 139°54'2 5.0
2018-Feb-22 17:30N 35°32' E 139°53'611.9
2018-Feb-22 17:00N 35°27' E 139°49'612.0
2018-Feb-22 16:31N 35°22' E 139°45'510.9
2018-Feb-22 16:00N 35°17' E 139°46'611.7
2018-Feb-22 15:30N 35°11' E 139°46'612.8
2018-Feb-22 15:00N 35°05' E 139°43'612.4
2018-Feb-22 14:30N 35°00' E 139°38'712.7
2018-Feb-22 13:59N 34°56' E 139°32'612.7
2018-Feb-22 13:29N 34°53' E 139°25'1112.4
2018-Feb-22 12:36N 34°46' E 139°15'212.4
2018-Feb-22 12:26N 34°44' E 139°13'511.7
2018-Feb-22 12:00N 34°40' E 139°09'811.2
2018-Feb-22 11:18N 34°35' E 139°02'410.8
2018-Feb-22 10:54N 34°33' E 138°58'512.4
2018-Feb-22 10:30N 34°33' E 138°52'611.0
2018-Feb-22 09:57N 34°36' E 138°45'511.8
2018-Feb-22 09:29N 34°41' E 138°42'612.3
2018-Feb-22 09:00N 34°46' E 138°40'612.8
2018-Feb-22 08:30N 34°52' E 138°37'612.9
2018-Feb-22 08:00N 34°58' E 138°34'4 8.3
2018-Feb-22 07:30N 35°01' E 138°30'1 2.1
2018-Feb-22 06:59N 34°60' E 138°30'0 0.0
2018-Feb-22 06:29N 34°60' E 138°30'0 0.0
2018-Feb-22 05:59N 34°60' E 138°30'0 0.0
2018-Feb-22 05:29N 34°60' E 138°30'0 0.0
2018-Feb-22 04:56N 34°60' E 138°30'0 0.0
2018-Feb-22 04:29N 34°60' E 138°30'0 0.0
2018-Feb-22 03:59N 34°60' E 138°30'0 0.0
2018-Feb-22 03:29N 34°60' E 138°30'0 0.0
2018-Feb-22 02:59N 34°60' E 138°30'0 0.0
2018-Feb-22 02:29N 34°60' E 138°30'1 1.2
2018-Feb-22 02:01N 35°00' E 138°30'3 5.4
2018-Feb-22 01:30N 35°00' E 138°33'612.3
2018-Feb-22 01:00N 34°55' E 138°30'612.6
2018-Feb-22 00:31N 34°49' E 138°28'712.6
2018-Feb-21 23:58N 34°43' E 138°24'712.2
2018-Feb-21 23:25N 34°37' E 138°21'511.9
2018-Feb-21 23:00N 34°33' E 138°17'16510.9
2018-Feb-21 07:48N 33°49' E 135°04'413.3
2018-Feb-21 07:30N 33°52' E 135°02'713.2
2018-Feb-21 07:00N 33°58' E 135°00'713.5
2018-Feb-21 06:30N 34°05' E 135°01'713.4
2018-Feb-21 06:00N 34°12' E 135°01'510.4
2018-Feb-21 05:30N 34°14' E 135°06'1 2.4
2018-Feb-21 04:58N 34°14' E 135°08'0 0.1
2018-Feb-21 04:28N 34°14' E 135°08'0 0.0
2018-Feb-21 03:58N 34°14' E 135°08'0 0.0
2018-Feb-21 03:28N 34°14' E 135°08'0 0.1
2018-Feb-21 02:58N 34°14' E 135°08'0 0.1
2018-Feb-21 02:28N 34°14' E 135°08'0 0.1
2018-Feb-21 01:58N 34°14' E 135°08'0 0.6
2018-Feb-21 01:30N 34°14' E 135°08'4 8.7
2018-Feb-21 01:00N 34°15' E 135°02'5 9.7
2018-Feb-21 00:30N 34°18' E 134°58'611.8
2018-Feb-21 00:00N 34°24' E 135°00'612.2
2018-Feb-20 23:30N 34°30' E 135°02'611.8
2018-Feb-20 23:01N 34°36' E 135°03'612.8
2018-Feb-20 22:30N 34°36' E 134°55'713.3
2018-Feb-20 22:00N 34°39' E 134°47'612.9
2018-Feb-20 21:30N 34°41' E 134°40'612.6
2018-Feb-20 21:00N 34°42' E 134°33'712.9
2018-Feb-20 20:26N 34°42' E 134°24'3 0.4
2018-Feb-20 12:20N 34°45' E 134°22'1 1.9
2018-Feb-20 11:58N 34°44' E 134°22'3 6.9
2018-Feb-20 11:30N 34°41' E 134°24'612.6
2018-Feb-20 11:00N 34°42' E 134°32'612.8
2018-Feb-20 10:30N 34°42' E 134°39'612.8
2018-Feb-20 10:00N 34°39' E 134°47'612.1
2018-Feb-20 09:30N 34°37' E 134°54'611.6
2018-Feb-20 09:00N 34°38' E 135°00'5 9.7
2018-Feb-20 08:30N 34°35' E 135°05'612.3
2018-Feb-20 08:00N 34°29' E 135°03'612.7
2018-Feb-20 07:30N 34°23' E 135°01'611.9
2018-Feb-20 07:00N 34°17' E 134°59'612.1
2018-Feb-20 06:30N 34°11' E 134°59'612.5
2018-Feb-20 06:01N 34°05' E 134°60'612.5
2018-Feb-20 05:31N 33°59' E 134°59'612.0
2018-Feb-20 05:00N 33°53' E 135°01'612.4
2018-Feb-20 04:30N 33°48' E 135°05'101 8.8
2018-Feb-19 17:03N 34°40' E 136°50'113.1
2018-Feb-19 17:00N 34°40' E 136°50'713.9
2018-Feb-19 16:30N 34°47' E 136°46'713.7
2018-Feb-19 16:00N 34°54' E 136°46'713.4
2018-Feb-19 15:30N 34°60' E 136°49'5 9.1
2018-Feb-19 15:01N 35°04' E 136°52'0 0.1
2018-Feb-19 14:29N 35°04' E 136°52'0 0.0
2018-Feb-19 13:59N 35°04' E 136°52'0 0.0
2018-Feb-19 13:29N 35°04' E 136°52'0 0.0
2018-Feb-19 12:59N 35°04' E 136°52'0 0.0
2018-Feb-19 12:29N 35°04' E 136°52'0 0.0
2018-Feb-19 11:59N 35°04' E 136°52'0 0.0
2018-Feb-19 11:29N 35°04' E 136°52'0 0.0
2018-Feb-19 10:59N 35°04' E 136°52'0 0.0
2018-Feb-19 10:29N 35°04' E 136°52'0 0.0
2018-Feb-19 09:59N 35°04' E 136°52'0 0.0
2018-Feb-19 09:29N 35°04' E 136°52'0 0.0
2018-Feb-19 08:59N 35°04' E 136°52'0 0.0
2018-Feb-19 08:23N 35°04' E 136°52'0 0.0
2018-Feb-19 07:59N 35°04' E 136°52'0 0.0
2018-Feb-19 07:29N 35°04' E 136°52'0 0.0
2018-Feb-19 06:59N 35°04' E 136°52'0 0.0
2018-Feb-19 06:29N 35°04' E 136°52'0 0.0
2018-Feb-19 05:59N 35°04' E 136°52'0 0.0
2018-Feb-19 05:26N 35°04' E 136°52'0 0.0
2018-Feb-19 04:56N 35°04' E 136°52'0 0.0
2018-Feb-19 04:26N 35°04' E 136°52'0 0.0
2018-Feb-19 03:59N 35°04' E 136°52'0 0.0
2018-Feb-19 03:29N 35°04' E 136°52'0 0.0
2018-Feb-19 02:59N 35°04' E 136°52'0 0.0
2018-Feb-19 02:29N 35°04' E 136°52'0 0.0
2018-Feb-19 02:01N 35°04' E 136°52'0 0.0
2018-Feb-19 01:30N 35°04' E 136°52'2 4.5
2018-Feb-19 01:00N 35°01' E 136°51'611.7
2018-Feb-19 00:31N 34°57' E 136°47'612.1
2018-Feb-19 00:01N 34°50' E 136°47'612.1
2018-Feb-18 23:30N 34°45' E 136°50'912.4
2018-Feb-18 22:45N 34°37' E 136°56'  
2018-Feb-16 16:07N 34°31' E 138°04'211.8
2018-Feb-16 15:59N 34°31' E 138°06'611.4
2018-Feb-16 15:28N 34°31' E 138°13'511.2
2018-Feb-16 15:00N 34°33' E 138°19'711.8
2018-Feb-16 14:25N 34°39' E 138°23'512.2
2018-Feb-16 14:00N 34°44' E 138°25'612.2
2018-Feb-16 13:29N 34°50' E 138°28'612.3
2018-Feb-16 12:59N 34°55' E 138°31'612.4
2018-Feb-16 12:30N 35°01' E 138°33'3 5.9
2018-Feb-16 12:00N 34°60' E 138°30'0 0.1
2018-Feb-16 11:25N 34°60' E 138°30'0 0.0
2018-Feb-16 10:58N 34°60' E 138°30'0 0.0
2018-Feb-16 10:28N 34°60' E 138°30'0 0.0
2018-Feb-16 09:58N 34°60' E 138°30'0 0.0
2018-Feb-16 09:28N 34°60' E 138°30'0 0.0
2018-Feb-16 08:58N 34°60' E 138°30'0 0.0
2018-Feb-16 08:28N 34°60' E 138°30'0 0.0
2018-Feb-16 07:58N 34°60' E 138°30'0 0.0
2018-Feb-16 07:28N 34°60' E 138°30'0 0.0
2018-Feb-16 06:58N 34°60' E 138°30'0 0.0
2018-Feb-16 06:28N 34°60' E 138°30'0 0.0
2018-Feb-16 05:58N 34°60' E 138°30'0 0.0
2018-Feb-16 05:28N 34°60' E 138°30'0 0.0
2018-Feb-16 04:55N 34°60' E 138°30'0 0.0
2018-Feb-16 04:28N 34°60' E 138°30'0 0.0
2018-Feb-16 03:58N 34°60' E 138°30'0 0.0
2018-Feb-16 03:25N 34°60' E 138°30'0 0.0
2018-Feb-16 02:52N 34°60' E 138°30'0 0.0
2018-Feb-16 02:28N 34°60' E 138°30'0 0.0
2018-Feb-16 01:58N 34°60' E 138°30'0 0.0
2018-Feb-16 01:28N 34°60' E 138°30'0 0.0
2018-Feb-16 00:58N 34°60' E 138°30'0 0.0
2018-Feb-16 00:28N 34°60' E 138°30'0 0.0
2018-Feb-15 23:58N 34°60' E 138°30'0 0.0
2018-Feb-15 23:28N 34°60' E 138°30'0 0.0
2018-Feb-15 22:58N 34°60' E 138°30'0 0.0
2018-Feb-15 22:28N 34°60' E 138°30'0 0.0
2018-Feb-15 21:58N 34°60' E 138°30'0 0.0
2018-Feb-15 21:28N 34°60' E 138°30'0 0.0
2018-Feb-15 20:58N 34°60' E 138°30'0 0.0
2018-Feb-15 20:28N 34°60' E 138°30'0 0.0
2018-Feb-15 19:58N 34°60' E 138°30'0 0.0
2018-Feb-15 19:28N 34°60' E 138°30'0 0.0
2018-Feb-15 18:58N 34°60' E 138°30'0 0.0
2018-Feb-15 18:30N 34°60' E 138°30'1 2.2
2018-Feb-15 18:00N 35°01' E 138°30'3 6.3
2018-Feb-15 17:31N 34°60' E 138°34'713.3
2018-Feb-15 17:00N 34°54' E 138°37'713.1
2018-Feb-15 16:30N 34°47' E 138°39'712.6
2018-Feb-15 15:58N 34°41' E 138°42'611.9
2018-Feb-15 15:30N 34°36' E 138°44'510.1
2018-Feb-15 15:00N 34°35' E 138°50'510.9
2018-Feb-15 14:30N 34°33' E 138°57'712.0
2018-Feb-15 13:54N 34°38' E 139°02'511.8
2018-Feb-15 13:31N 34°42' E 139°06'712.8
2018-Feb-15 13:00N 34°47' E 139°11'712.0
2018-Feb-15 12:27N 34°52' E 139°16'611.4
2018-Feb-15 11:56N 34°55' E 139°23'512.0
2018-Feb-15 11:28N 34°59' E 139°28'612.7
2018-Feb-15 11:00N 35°02' E 139°34'713.2
2018-Feb-15 10:30N 35°06' E 139°40'613.3
2018-Feb-15 10:01N 35°11' E 139°45'611.8
2018-Feb-15 09:30N 35°17' E 139°45'612.5
2018-Feb-15 09:00N 35°23' E 139°42'3 5.6
2018-Feb-15 08:30N 35°26' E 139°41'0 0.0
2018-Feb-15 08:00N 35°26' E 139°41'0 0.0
2018-Feb-15 07:30N 35°26' E 139°41'0 0.0
2018-Feb-15 06:58N 35°26' E 139°41'0 0.0
2018-Feb-15 06:24N 35°26' E 139°41'0 0.0
2018-Feb-15 06:01N 35°26' E 139°41'0 0.0
2018-Feb-15 05:30N 35°26' E 139°41'0 0.0
2018-Feb-15 05:01N 35°26' E 139°41'0 0.4
2018-Feb-15 04:30N 35°25' E 139°41'1 1.1
2018-Feb-15 04:00N 35°25' E 139°42'0 0.0
2018-Feb-15 03:30N 35°25' E 139°42'0 0.0
2018-Feb-15 03:00N 35°25' E 139°42'0 0.1
2018-Feb-15 02:30N 35°25' E 139°42'0 0.0
2018-Feb-15 02:00N 35°25' E 139°42'0 0.1
2018-Feb-15 01:30N 35°25' E 139°42'0 0.0
2018-Feb-15 01:00N 35°25' E 139°42'0 0.0
2018-Feb-15 00:30N 35°25' E 139°42'0 0.1
2018-Feb-15 00:00N 35°25' E 139°42'0 0.0
2018-Feb-14 23:30N 35°25' E 139°42'0 0.0
2018-Feb-14 23:00N 35°25' E 139°42'1 1.1
2018-Feb-14 22:30N 35°25' E 139°42'510.6
2018-Feb-14 22:01N 35°19' E 139°43'611.8
2018-Feb-14 21:31N 35°14' E 139°47'612.4
2018-Feb-14 21:00N 35°08' E 139°46'612.0
2018-Feb-14 20:30N 35°03' E 139°41'612.8
2018-Feb-14 20:00N 34°59' E 139°36'814.9
2018-Feb-14 19:30N 34°55' E 139°28'815.3
2018-Feb-14 19:00N 34°50' E 139°21'814.1
2018-Feb-14 18:28N 34°45' E 139°14'614.3
2018-Feb-14 18:00N 34°40' E 139°08'713.7
2018-Feb-14 17:28N 34°35' E 139°02'613.3
2018-Feb-14 17:00N 34°31' E 138°56'814.1
2018-Feb-14 16:24N 34°30' E 138°46'613.7
2018-Feb-14 15:57N 34°29' E 138°39'613.8
2018-Feb-14 15:30N 34°28' E 138°31'713.6
2018-Feb-14 15:00N 34°26' E 138°23'813.8
2018-Feb-14 14:23N 34°25' E 138°13'  

Dump ship's entire track history